Airfield :
LOGIN :

Register | Disclaimer

   EN    FR    IT 

 










Legend :    VFR   Marginal VFR   IFR   Intensive IFR   Very Intensive IFR
Visi :
Ceiling :
>= 8 km
>= 3000ft
5 to 8 km
1000 to 3000 ft
1500m to 5 km
500 to 1000 ft
800 to 1500m
200 to 500 ft
< 800m
< 200 ft
Symbols :   Thunderstorms  Fog  Heavy snow  Heavy precipitations  Wind > 20 kt
SIGMETs :     Misc.  Thunderstorms  Icing  Turbulence  Mountain Waves  Volcanic Ashes






- Airport Elevation : 915 ft
- IATA code : LUG


LSZA - Lugano

CURRENT METAR :
  • 052020Z AUTO VRB01KT 9999 SCT039 04/M02 Q1032

EXPIRED METARs :
  • 051950Z AUTO VRB02KT CAVOK 03/M01 Q1031
  • 051920Z AUTO VRB01KT 9999 NSC 03/M01 Q1031
  • 051850Z VRB01KT CAVOK 04/M02 Q1031
  • 051820Z VRB02KT 9999 FEW110 05/M02 Q1030
  • 051750Z AUTO 19004KT 100V230 9999 NSC 06/M02 Q1030
  • 051720Z 19005KT 120V230 9999 FEW110 06/M02 Q1030

TAF AMD TAF LSZA
Valid from the 05 at 20:00 until the 06 at 00:00 UTC


052017Z 0520/0524 20007KT CAVOK
ATIS : +41 22 417 40 88



MET'MAP, your aeronautical weather chart ! - Copyright ORBIFLY December 2007 - Disclaimer

ORBIFLY MET'MAP TEAM :

Programming & Development : Alexandra Zaïnal
Original concept : Baudouin d'Aumeries
Technical & hardware support : Manuel Goepfert
Assistance : Marc-Olivier Méhu




SOURCES & CREDITS :

   NOAA